Time;durP1;ratioP1;P1;durP2;ratioP2;P2;SDS_P1;SDS_P2;PMS_P1;PMS_P2;Temp;Humidity;BMP_temperature;BMP_pressure;BME280_temperature;BME280_humidity;BME280_pressure;Samples;Min_cycle;Max_cycle;Signal;HPM_P1;HPM_P2
2022/08/04 00:01:52;;;;;;;4.93;1.63;;;22.30;99.90;;;;;;5073753;28;20199;-44
2022/08/04 00:04:27;;;;;;;8.70;1.80;;;22.20;99.90;;;;;;5073176;28;20195;-46
2022/08/04 00:07:03;;;;;;;6.93;1.57;;;22.10;99.90;;;;;;5073666;28;20623;-45
2022/08/04 00:09:37;;;;;;;5.70;1.67;;;22.00;99.90;;;;;;5073723;28;20167;-46
2022/08/04 00:12:06;;;;;;;12.13;2.00;;;22.00;99.90;;;;;;5073876;28;20170;-47
2022/08/04 00:14:34;;;;;;;12.30;2.30;;;22.10;99.90;;;;;;5073608;28;20593;-45
2022/08/04 00:17:05;;;;;;;13.00;2.40;;;22.00;99.90;;;;;;5073570;28;20183;-45
2022/08/04 00:19:44;;;;;;;6.70;1.80;;;22.10;99.90;;;;;;5073292;28;20627;-46
2022/08/04 00:22:12;;;;;;;7.47;1.83;;;22.20;99.90;;;;;;5073483;28;20194;-42
2022/08/04 00:24:38;;;;;;;7.37;2.20;;;22.10;99.90;;;;;;5073467;28;20267;-47
2022/08/04 00:27:05;;;;;;;6.70;2.07;;;22.20;99.90;;;;;;5073103;28;20294;-46
2022/08/04 00:29:32;;;;;;;5.10;1.97;;;22.20;99.90;;;;;;5073136;28;20183;-45
2022/08/04 00:32:00;;;;;;;4.37;1.53;;;22.10;99.90;;;;;;5073444;28;20258;-44
2022/08/04 00:34:27;;;;;;;8.13;2.07;;;22.10;99.90;;;;;;5073369;28;20190;-45
2022/08/04 00:36:54;;;;;;;5.87;1.83;;;22.00;99.90;;;;;;5073135;28;20257;-44
2022/08/04 00:39:21;;;;;;;5.77;1.63;;;21.90;99.90;;;;;;5072976;28;20188;-45
2022/08/04 00:42:24;;;;;;;3.83;1.40;;;21.80;99.90;;;;;;5073267;28;20271;-45
2022/08/04 00:45:31;;;;;;;7.77;1.80;;;21.80;99.90;;;;;;5073139;28;20172;-46
2022/08/04 00:48:13;;;;;;;5.43;2.07;;;21.70;99.90;;;;;;5049966;28;20727;-45
2022/08/04 00:51:08;;;;;;;4.33;1.60;;;21.60;99.90;;;;;;5073079;28;20219;-46
2022/08/04 00:53:48;;;;;;;8.30;2.10;;;21.60;99.90;;;;;;5073757;28;20507;-45
2022/08/04 00:56:43;;;;;;;4.67;1.50;;;21.40;99.90;;;;;;5073301;28;20195;-45
2022/08/04 01:00:02;;;;;;;6.57;1.40;;;21.40;99.90;;;;;;5072997;28;20612;-46
2022/08/04 01:02:36;;;;;;;6.07;1.40;;;21.30;99.90;;;;;;5031115;28;20177;-45
2022/08/04 01:05:10;;;;;;;4.03;1.40;;;21.20;99.90;;;;;;5071881;28;20223;-45
2022/08/04 01:07:47;;;;;;;5.93;1.77;;;21.20;99.90;;;;;;5073083;28;20196;-45
2022/08/04 01:10:31;;;;;;;4.97;1.50;;;21.20;99.90;;;;;;5075448;28;20195;-45
2022/08/04 01:13:23;;;;;;;4.20;1.83;;;21.10;99.90;;;;;;5076591;28;20164;-46
2022/08/04 01:15:58;;;;;;;7.80;1.87;;;21.10;99.90;;;;;;5076532;28;20164;-46
2022/08/04 01:18:33;;;;;;;8.73;2.00;;;21.00;99.90;;;;;;5076984;28;20263;-47
2022/08/04 01:21:23;;;;;;;5.17;2.10;;;21.00;99.90;;;;;;5076556;28;20256;-45
2022/08/04 01:24:02;;;;;;;5.70;1.90;;;20.90;99.90;;;;;;5076420;28;20164;-45
2022/08/04 01:26:54;;;;;;;7.37;1.70;;;20.90;99.90;;;;;;5076839;28;20195;-45
2022/08/04 01:29:26;;;;;;;5.57;1.97;;;20.80;99.90;;;;;;5076477;28;20175;-46
2022/08/04 01:32:02;;;;;;;3.40;1.63;;;20.80;99.90;;;;;;5076091;28;20198;-46
2022/08/04 01:34:41;;;;;;;11.60;1.90;;;20.70;99.90;;;;;;5076431;28;20178;-44
2022/08/04 01:37:45;;;;;;;11.13;1.67;;;20.70;99.90;;;;;;5076086;28;20199;-46
2022/08/04 01:40:13;;;;;;;8.40;1.70;;;20.60;99.90;;;;;;5075937;28;20195;-45
2022/08/04 01:42:42;;;;;;;6.57;1.80;;;20.50;99.90;;;;;;5076237;28;20186;-44
2022/08/04 01:45:09;;;;;;;10.90;2.00;;;20.50;99.90;;;;;;5076249;28;20604;-45
2022/08/04 01:47:39;;;;;;;4.73;1.53;;;20.50;99.90;;;;;;5076133;28;20211;-46
2022/08/04 01:50:10;;;;;;;8.33;2.20;;;20.40;99.90;;;;;;5076089;28;20199;-44
2022/08/04 01:52:38;;;;;;;5.97;1.90;;;20.40;99.90;;;;;;5075788;28;20203;-46
2022/08/04 01:55:08;;;;;;;7.70;2.17;;;20.30;99.90;;;;;;5075799;28;20186;-45
2022/08/04 01:57:44;;;;;;;6.67;2.13;;;20.30;99.90;;;;;;5075974;28;20183;-45
2022/08/04 02:00:25;;;;;;;8.80;1.63;;;20.30;99.90;;;;;;5075673;28;20674;-44
2022/08/04 02:02:52;;;;;;;8.57;2.00;;;20.20;99.90;;;;;;5076121;28;20168;-46
2022/08/04 02:05:19;;;;;;;6.13;1.97;;;20.20;99.90;;;;;;5075497;28;20187;-43
2022/08/04 02:08:21;;;;;;;9.33;2.07;;;20.20;99.90;;;;;;5075284;28;20582;-46
2022/08/04 02:11:11;;;;;;;7.23;1.93;;;20.10;99.90;;;;;;5075509;28;20198;-45
2022/08/04 02:14:40;;;;;;;9.17;2.90;;;20.10;99.90;;;;;;5075423;28;20168;-46
2022/08/04 02:17:30;;;;;;;5.27;2.30;;;20.10;99.90;;;;;;5033323;28;20235;-45
2022/08/04 02:20:05;;;;;;;4.50;1.73;;;20.10;99.90;;;;;;5028266;28;20220;-47
2022/08/04 02:22:33;;;;;;;9.33;2.20;;;20.00;99.90;;;;;;5064437;28;20301;-45
2022/08/04 02:25:10;;;;;;;7.50;2.37;;;20.00;99.90;;;;;;5075470;28;20183;-45
2022/08/04 02:28:14;;;;;;;8.13;2.20;;;20.00;99.90;;;;;;5075444;28;20321;-45
2022/08/04 02:30:59;;;;;;;8.80;2.23;;;19.90;99.90;;;;;;5075299;28;20203;-46
2022/08/04 02:33:39;;;;;;;8.47;1.87;;;19.90;99.90;;;;;;5075306;28;20234;-44
2022/08/04 02:36:08;;;;;;;7.23;2.13;;;19.90;99.90;;;;;;5075110;28;20160;-44
2022/08/04 02:38:48;;;;;;;10.40;2.67;;;19.90;99.90;;;;;;5075500;28;20214;-45
2022/08/04 02:41:16;;;;;;;9.93;2.03;;;19.80;99.90;;;;;;5074744;28;20252;-44
2022/08/04 02:43:46;;;;;;;9.20;2.23;;;19.80;99.90;;;;;;5074811;28;20660;-44
2022/08/04 02:46:12;;;;;;;4.00;2.20;;;19.80;99.90;;;;;;5073569;28;20186;-45
2022/08/04 02:48:42;;;;;;;10.47;2.30;;;19.80;99.90;;;;;;5074740;28;20203;-44
2022/08/04 02:51:11;;;;;;;5.87;1.80;;;19.70;99.90;;;;;;5074770;28;20283;-45
2022/08/04 02:53:37;;;;;;;4.60;2.23;;;19.70;99.90;;;;;;5074985;28;20250;-44
2022/08/04 02:56:06;;;;;;;7.70;2.37;;;19.60;99.90;;;;;;5075310;28;20180;-45
2022/08/04 02:58:34;;;;;;;7.10;1.80;;;19.60;99.90;;;;;;5074850;28;20184;-45
2022/08/04 03:01:00;;;;;;;9.77;2.00;;;19.60;99.90;;;;;;5074885;28;20214;-44
2022/08/04 03:03:39;;;;;;;12.03;2.00;;;19.50;99.90;;;;;;5074775;28;20179;-44
2022/08/04 03:06:10;;;;;;;9.13;2.27;;;19.50;99.90;;;;;;5074560;28;20681;-45
2022/08/04 03:08:39;;;;;;;8.13;2.27;;;19.40;99.90;;;;;;5074597;28;20195;-45
2022/08/04 03:11:27;;;;;;;9.17;1.90;;;19.40;99.90;;;;;;5072999;28;20196;-43
2022/08/04 03:14:25;;;;;;;6.10;2.20;;;19.40;99.90;;;;;;5074304;28;20156;-46
2022/08/04 03:17:08;;;;;;;8.33;2.30;;;19.30;99.90;;;;;;5051412;28;20188;-43
2022/08/04 03:20:04;;;;;;;9.33;2.43;;;19.30;99.90;;;;;;5074045;28;20163;-45
2022/08/04 03:23:07;;;;;;;8.77;2.60;;;19.20;99.90;;;;;;5072817;28;20609;-46
2022/08/04 03:25:54;;;;;;;12.00;2.93;;;19.20;99.90;;;;;;5072751;28;20530;-44
2022/08/04 03:28:35;;;;;;;6.73;2.50;;;19.20;99.90;;;;;;5074416;28;20195;-44
2022/08/04 03:31:46;;;;;;;5.20;2.77;;;19.10;99.90;;;;;;5074000;28;20274;-45
2022/08/04 03:34:25;;;;;;;6.07;2.23;;;19.10;99.90;;;;;;5074140;28;20252;-45
2022/08/04 03:37:10;;;;;;;7.70;1.97;;;19.10;99.90;;;;;;5073669;28;20183;-44
2022/08/04 03:40:03;;;;;;;10.50;2.83;;;19.00;99.90;;;;;;5073614;28;20187;-45
2022/08/04 03:42:42;;;;;;;13.10;2.70;;;19.00;99.90;;;;;;5073828;28;20203;-43
2022/08/04 03:45:21;;;;;;;8.30;2.23;;;19.00;99.90;;;;;;5073665;28;20175;-44
2022/08/04 03:48:10;;;;;;;9.10;2.47;;;18.90;99.90;;;;;;5073641;28;20191;-44
2022/08/04 03:53:50;;;;;;;9.43;2.40;;;18.90;99.90;;;;;;5074161;28;20634;-45
2022/08/04 03:56:28;;;;;;;10.93;2.63;;;18.80;99.90;;;;;;5073886;28;20671;-45
2022/08/04 03:59:18;;;;;;;7.33;2.30;;;18.80;99.90;;;;;;5073830;28;20171;-45
2022/08/04 04:02:04;;;;;;;11.27;3.00;;;18.80;99.90;;;;;;5073443;28;20203;-43
2022/08/04 04:04:48;;;;;;;9.33;2.43;;;18.80;99.90;;;;;;5073773;28;20167;-45
2022/08/04 04:07:57;;;;;;;7.63;2.00;;;18.70;99.90;;;;;;5074011;28;20188;-45
2022/08/04 04:10:40;;;;;;;11.70;2.57;;;18.70;99.90;;;;;;5073629;28;20195;-44
2022/08/04 04:13:14;;;;;;;3.90;2.47;;;18.60;99.90;;;;;;5073376;28;20160;-46
2022/08/04 04:16:23;;;;;;;8.40;2.50;;;18.60;99.90;;;;;;5073809;28;20171;-44
2022/08/04 04:19:17;;;;;;;8.97;2.87;;;18.50;99.90;;;;;;5073813;28;20246;-44
2022/08/04 04:21:55;;;;;;;10.03;2.83;;;18.50;99.90;;;;;;5073235;28;20559;-43
2022/08/04 04:24:53;;;;;;;11.87;2.67;;;18.50;99.90;;;;;;5071983;28;20168;-45
2022/08/04 04:27:39;;;;;;;9.40;3.03;;;18.50;99.90;;;;;;5064374;28;20226;-45
2022/08/04 04:30:12;;;;;;;7.97;2.53;;;18.40;99.90;;;;;;5073368;28;20191;-44
2022/08/04 04:33:25;;;;;;;9.37;2.60;;;18.40;99.90;;;;;;5073373;28;20174;-44
2022/08/04 04:36:24;;;;;;;10.60;2.37;;;18.40;99.90;;;;;;5041501;28;20200;-45
2022/08/04 04:39:14;;;;;;;12.17;2.77;;;18.40;99.90;;;;;;5073388;28;20191;-47
2022/08/04 04:42:12;;;;;;;8.77;2.83;;;18.30;99.90;;;;;;5072952;28;20664;-43
2022/08/04 04:44:56;;;;;;;8.43;2.27;;;18.30;99.90;;;;;;5067240;28;20275;-44
2022/08/04 04:47:44;;;;;;;4.63;2.30;;;18.30;99.90;;;;;;5077202;28;20202;-44
2022/08/04 04:50:32;;;;;;;7.47;2.67;;;18.30;99.90;;;;;;5077052;28;20191;-45
2022/08/04 04:53:08;;;;;;;6.63;2.40;;;18.30;99.90;;;;;;5076916;28;20179;-47
2022/08/04 04:55:42;;;;;;;7.40;2.33;;;18.40;99.90;;;;;;5077197;28;20164;-45
2022/08/04 04:58:11;;;;;;;13.13;2.80;;;18.30;99.90;;;;;;5077054;28;20534;-44
2022/08/04 05:00:40;;;;;;;9.10;2.47;;;18.30;99.90;;;;;;5076933;28;20725;-43
2022/08/04 05:03:14;;;;;;;8.87;2.40;;;18.40;99.90;;;;;;5077454;28;20201;-45
2022/08/04 05:06:14;;;;;;;8.67;2.73;;;18.40;99.90;;;;;;5076810;28;20159;-45
2022/08/04 05:08:50;;;;;;;7.00;2.70;;;18.40;99.90;;;;;;5076829;28;20196;-47
2022/08/04 05:11:46;;;;;;;6.67;2.40;;;18.50;99.90;;;;;;5076816;28;20724;-44
2022/08/04 05:14:24;;;;;;;6.87;2.30;;;18.60;99.90;;;;;;5076443;28;20527;-45
2022/08/04 05:17:22;;;;;;;6.97;2.40;;;18.60;99.90;;;;;;5076479;28;20172;-45
2022/08/04 05:20:09;;;;;;;14.17;3.00;;;18.60;99.90;;;;;;5076583;28;20176;-44
2022/08/04 05:22:42;;;;;;;7.40;2.60;;;18.70;99.90;;;;;;5076564;28;20217;-44
2022/08/04 05:25:38;;;;;;;7.87;2.40;;;18.80;99.90;;;;;;5076559;28;20525;-43
2022/08/04 05:28:10;;;;;;;9.17;2.93;;;18.80;99.90;;;;;;5076674;28;20695;-44
2022/08/04 05:30:47;;;;;;;7.83;2.50;;;18.90;99.90;;;;;;5076119;28;20671;-44
2022/08/04 05:33:23;;;;;;;8.10;2.83;;;19.00;99.90;;;;;;5076458;28;20163;-45
2022/08/04 05:35:53;;;;;;;6.97;2.47;;;19.10;99.90;;;;;;5076150;28;20529;-45
2022/08/04 05:38:23;;;;;;;8.87;3.03;;;19.20;99.90;;;;;;5075955;28;20253;-46
2022/08/04 05:40:51;;;;;;;7.77;3.30;;;19.30;99.90;;;;;;5076239;28;20230;-44
2022/08/04 05:43:17;;;;;;;7.53;2.73;;;19.40;99.90;;;;;;5076410;28;20183;-45
2022/08/04 05:45:47;;;;;;;5.50;2.70;;;19.40;99.90;;;;;;5075891;28;20643;-45
2022/08/04 05:48:12;;;;;;;12.93;2.67;;;19.50;99.90;;;;;;5076087;28;20199;-45
2022/08/04 05:50:38;;;;;;;9.10;2.77;;;19.70;99.90;;;;;;5075856;28;20199;-45
2022/08/04 05:53:05;;;;;;;7.00;3.10;;;19.80;99.90;;;;;;5076075;28;20179;-44
2022/08/04 05:55:31;;;;;;;13.43;2.87;;;19.80;99.90;;;;;;5075471;28;20168;-44
2022/08/04 05:57:58;;;;;;;12.87;3.57;;;20.00;99.90;;;;;;5075736;28;20179;-44
2022/08/04 06:00:26;;;;;;;13.03;3.50;;;20.10;99.90;;;;;;5076374;28;20257;-44
2022/08/04 06:02:53;;;;;;;14.47;3.40;;;20.20;99.90;;;;;;5075871;28;20190;-45
2022/08/04 06:05:19;;;;;;;9.60;3.30;;;20.40;99.90;;;;;;5075533;28;20262;-46
2022/08/04 06:07:46;;;;;;;12.07;3.20;;;20.50;99.90;;;;;;5075511;28;20345;-46
2022/08/04 06:10:12;;;;;;;10.83;3.27;;;20.60;99.90;;;;;;5075667;28;20230;-45
2022/08/04 06:12:46;;;;;;;14.63;3.27;;;20.70;99.90;;;;;;5075442;28;20210;-46
2022/08/04 06:15:17;;;;;;;11.97;3.47;;;20.90;99.90;;;;;;5075669;28;20585;-46
2022/08/04 06:17:54;;;;;;;12.70;3.53;;;21.10;99.90;;;;;;5075608;28;20179;-45
2022/08/04 06:20:20;;;;;;;10.30;3.37;;;21.30;99.90;;;;;;5075524;28;20203;-43
2022/08/04 06:22:51;;;;;;;17.87;3.37;;;21.50;99.90;;;;;;5075442;28;20545;-44
2022/08/04 06:25:21;;;;;;;13.63;3.30;;;21.70;99.90;;;;;;5075267;28;20233;-46
2022/08/04 06:27:48;;;;;;;10.90;3.30;;;21.90;99.90;;;;;;5075632;28;20196;-45
2022/08/04 06:30:15;;;;;;;10.40;3.40;;;22.10;99.90;;;;;;5075263;28;20195;-45
2022/08/04 06:32:54;;;;;;;8.77;2.53;;;22.30;99.90;;;;;;5075294;28;20183;-44
2022/08/04 06:35:20;;;;;;;10.33;2.50;;;22.50;99.90;;;;;;5075251;28;20159;-45
2022/08/04 06:37:47;;;;;;;5.60;2.10;;;22.70;99.90;;;;;;5074851;28;20577;-46
2022/08/04 06:40:19;;;;;;;13.60;2.57;;;22.90;99.90;;;;;;5075095;28;20203;-45
2022/08/04 06:42:45;;;;;;;17.13;3.00;;;23.10;99.90;;;;;;5075094;28;20174;-46
2022/08/04 06:45:13;;;;;;;27.80;3.17;;;23.30;99.90;;;;;;5074950;28;20643;-45
2022/08/04 06:47:41;;;;;;;11.37;2.60;;;23.60;99.90;;;;;;5074657;28;20205;-45
2022/08/04 06:50:08;;;;;;;12.60;3.07;;;23.80;99.90;;;;;;5074651;28;20663;-45
2022/08/04 06:52:34;;;;;;;5.00;2.70;;;24.00;99.90;;;;;;5074889;28;20197;-47
2022/08/04 06:55:00;;;;;;;7.87;2.80;;;24.30;99.90;;;;;;5074938;28;20183;-46
2022/08/04 06:57:27;;;;;;;11.83;3.00;;;24.50;99.90;;;;;;5074781;28;20568;-45
2022/08/04 07:00:05;;;;;;;9.37;2.77;;;24.80;99.90;;;;;;5074624;28;20280;-47
2022/08/04 07:02:37;;;;;;;10.93;2.33;;;25.00;99.90;;;;;;5074717;28;20217;-45
2022/08/04 07:05:05;;;;;;;6.70;2.67;;;25.10;99.90;;;;;;5074656;28;20221;-46
2022/08/04 07:07:31;;;;;;;8.00;2.60;;;25.30;99.90;;;;;;5073355;28;20686;-44
2022/08/04 07:09:57;;;;;;;6.53;3.03;;;25.60;99.90;;;;;;5074437;28;20698;-46
2022/08/04 07:12:23;;;;;;;10.73;2.37;;;25.80;99.90;;;;;;5074219;28;20172;-45
2022/08/04 07:14:50;;;;;;;7.53;1.90;;;26.00;99.90;;;;;;5074181;28;20186;-45
2022/08/04 07:17:19;;;;;;;8.10;2.13;;;26.20;99.90;;;;;;5074109;28;20179;-45
2022/08/04 07:19:45;;;;;;;9.70;2.23;;;26.50;99.90;;;;;;5074033;28;20188;-46
2022/08/04 07:22:11;;;;;;;3.93;1.87;;;26.60;99.90;;;;;;5074064;28;20212;-44
2022/08/04 07:24:37;;;;;;;7.80;1.83;;;26.90;99.90;;;;;;5074020;28;20186;-46
2022/08/04 07:27:05;;;;;;;9.27;2.27;;;27.10;99.90;;;;;;5073872;28;20175;-46
2022/08/04 07:29:33;;;;;;;6.67;2.57;;;27.30;99.90;;;;;;5073883;28;20534;-46
2022/08/04 07:31:59;;;;;;;4.43;1.57;;;27.50;99.90;;;;;;5073858;28;20263;-45
2022/08/04 07:34:26;;;;;;;10.57;2.30;;;27.80;99.90;;;;;;5073888;28;20196;-46
2022/08/04 07:36:55;;;;;;;5.07;1.70;;;28.10;99.90;;;;;;5073708;28;20245;-46
2022/08/04 07:39:27;;;;;;;3.90;2.00;;;28.30;99.90;;;;;;5074067;28;20187;-43
2022/08/04 07:41:53;;;;;;;16.47;2.43;;;28.50;99.90;;;;;;5073698;28;20226;-43
2022/08/04 07:44:19;;;;;;;6.87;2.17;;;28.70;99.90;;;;;;5073709;28;20194;-44
2022/08/04 07:46:45;;;;;;;8.87;2.00;;;29.00;99.90;;;;;;5073925;28;20550;-44
2022/08/04 07:49:11;;;;;;;4.10;2.10;;;29.10;99.90;;;;;;5073834;28;20217;-42
2022/08/04 07:51:39;;;;;;;4.77;1.70;;;29.30;99.90;;;;;;5073598;28;20195;-43
2022/08/04 07:54:08;;;;;;;9.17;2.07;;;29.40;99.90;;;;;;5073583;28;20176;-43
2022/08/04 07:56:38;;;;;;;12.63;2.00;;;29.60;99.90;;;;;;5073845;28;20543;-43
2022/08/04 07:59:05;;;;;;;4.47;1.93;;;29.90;99.90;;;;;;5073589;28;20156;-45
2022/08/04 08:01:31;;;;;;;7.27;1.70;;;30.10;99.90;;;;;;5073359;28;20744;-43
2022/08/04 08:03:59;;;;;;;5.23;2.00;;;30.40;99.90;;;;;;5073484;28;20544;-44
2022/08/04 08:06:25;;;;;;;5.93;1.67;;;30.80;99.90;;;;;;5073403;28;20203;-44
2022/08/04 08:08:50;;;;;;;8.20;1.60;;;31.00;99.90;;;;;;5073545;28;20233;-44
2022/08/04 08:11:16;;;;;;;3.23;1.80;;;31.20;99.90;;;;;;5073297;28;20219;-44
2022/08/04 08:13:43;;;;;;;5.50;1.33;;;31.40;99.90;;;;;;5073581;28;20183;-44
2022/08/04 08:16:10;;;;;;;3.13;1.43;;;31.50;99.90;;;;;;5073593;28;20199;-43
2022/08/04 08:18:36;;;;;;;2.10;1.30;;;31.50;99.90;;;;;;5073064;28;20213;-44
2022/08/04 08:21:02;;;;;;;7.03;1.53;;;31.50;99.90;;;;;;5073525;28;20203;-46
2022/08/04 08:23:30;;;;;;;2.63;1.17;;;31.60;99.90;;;;;;5073255;28;20215;-43
2022/08/04 08:25:56;;;;;;;5.73;1.50;;;31.60;99.90;;;;;;5073236;28;20525;-44
2022/08/04 08:28:22;;;;;;;2.27;1.70;;;31.60;99.90;;;;;;5073394;28;20207;-45
2022/08/04 08:30:47;;;;;;;3.90;1.57;;;31.50;99.90;;;;;;5073352;28;20250;-45
2022/08/04 08:33:15;;;;;;;2.93;1.27;;;31.40;99.90;;;;;;5073177;28;20259;-45
2022/08/04 08:35:58;;;;;;;4.27;1.43;;;31.30;99.90;;;;;;5073396;28;20262;-45
2022/08/04 08:38:33;;;;;;;3.20;1.90;;;31.20;99.90;;;;;;5073130;28;20191;-44
2022/08/04 08:41:43;;;;;;;5.00;1.57;;;31.20;99.90;;;;;;5073393;28;20599;-44
2022/08/04 08:44:34;;;;;;;4.47;2.10;;;31.20;99.90;;;;;;5053472;28;20198;-44
2022/08/04 08:47:00;;;;;;;6.37;1.90;;;31.10;99.90;;;;;;5073201;28;20179;-45
2022/08/04 08:49:28;;;;;;;7.57;2.40;;;31.00;99.90;;;;;;5073030;28;20237;-44
2022/08/04 08:52:17;;;;;;;6.80;1.77;;;31.00;99.90;;;;;;5073141;28;20199;-43
2022/08/04 08:54:52;;;;;;;3.30;2.03;;;30.90;99.90;;;;;;5073653;28;20164;-44
2022/08/04 08:57:45;;;;;;;5.10;2.05;;;31.00;99.90;;;;;;5073245;28;20178;-47
2022/08/04 09:00:17;;;;;;;6.40;2.40;;;31.10;99.90;;;;;;5073113;28;20242;-48
2022/08/04 09:02:53;;;;;;;4.95;2.15;;;31.20;99.90;;;;;;5073161;28;20199;-46
2022/08/04 09:05:46;;;;;;;3.47;1.90;;;31.30;99.90;;;;;;5072871;28;20175;-46
2022/08/04 09:08:53;;;;;;;4.10;2.20;;;31.40;99.90;;;;;;5072730;28;20222;-47
2022/08/04 09:11:24;;;;;;;6.32;2.17;;;31.50;99.90;;;;;;5072712;28;20192;-47
2022/08/04 09:13:55;;;;;;;2.08;1.50;;;31.70;99.90;;;;;;5072772;28;20628;-47
2022/08/04 09:16:55;;;;;;;5.07;1.50;;;31.70;99.90;;;;;;5072435;28;20301;-47
2022/08/04 09:19:27;;;;;;;2.72;1.50;;;31.80;99.90;;;;;;5073128;28;20590;-46
2022/08/04 09:22:07;;;;;;;3.70;1.40;;;31.90;99.90;;;;;;5072673;28;20671;-47
2022/08/04 09:24:35;;;;;;;4.05;1.30;;;32.00;99.90;;;;;;5072701;28;20159;-48
2022/08/04 09:27:07;;;;;;;4.47;1.45;;;32.00;99.90;;;;;;5072684;28;20175;-47
2022/08/04 09:30:02;;;;;;;3.20;1.88;;;32.10;99.90;;;;;;5072915;28;20686;-46
2022/08/04 09:32:47;;;;;;;6.43;1.50;;;32.30;99.90;;;;;;5076730;28;20175;-47
2022/08/04 09:35:40;;;;;;;3.35;1.40;;;32.60;99.90;;;;;;5076533;28;20156;-47
2022/08/04 09:38:25;;;;;;;4.65;1.90;;;32.80;99.90;;;;;;5076611;28;20655;-48
2022/08/04 09:41:03;;;;;;;5.47;1.67;;;32.90;99.90;;;;;;5076284;28;20707;-47
2022/08/04 09:43:55;;;;;;;4.18;1.60;;;33.00;99.90;;;;;;5076591;28;20174;-47
2022/08/04 09:46:26;;;;;;;5.18;1.58;;;33.10;99.90;;;;;;5075933;28;20164;-48
2022/08/04 09:49:30;;;;;;;5.15;1.83;;;33.10;99.90;;;;;;5076076;28;20551;-48
2022/08/04 09:52:06;;;;;;;3.50;1.77;;;33.10;99.90;;;;;;5075289;28;20619;-46
2022/08/04 09:54:41;;;;;;;5.68;1.92;;;33.00;99.90;;;;;;5076080;28;20164;-48
2022/08/04 09:57:13;;;;;;;2.55;1.80;;;32.90;99.90;;;;;;5074557;28;20175;-47
2022/08/04 10:00:02;;;;;;;7.20;1.60;;;32.90;99.90;;;;;;5075917;28;20195;-48
2022/08/04 10:02:33;;;;;;;14.95;2.63;;;32.80;99.90;;;;;;5075960;28;20704;-47
2022/08/04 10:05:02;;;;;;;6.05;1.90;;;32.80;99.90;;;;;;5075823;28;20259;-47
2022/08/04 10:07:55;;;;;;;4.47;1.90;;;32.60;99.90;;;;;;5075708;28;20207;-46
2022/08/04 10:10:47;;;;;;;4.78;1.90;;;32.60;99.80;;;;;;5075612;28;20655;-46
2022/08/04 10:14:03;;;;;;;2.55;1.77;;;32.50;99.50;;;;;;5075796;28;20583;-48
2022/08/04 10:17:00;;;;;;;6.90;1.67;;;32.50;99.50;;;;;;5052717;28;20241;-47
2022/08/04 10:19:37;;;;;;;8.38;1.73;;;32.50;99.80;;;;;;5075691;28;20175;-48
2022/08/04 10:22:24;;;;;;;6.40;1.65;;;32.50;99.40;;;;;;5075942;28;20264;-47
2022/08/04 10:25:08;;;;;;;2.85;1.48;;;32.40;99.90;;;;;;5075563;28;20177;-48
2022/08/04 10:28:01;;;;;;;4.18;1.50;;;32.30;99.80;;;;;;5075588;28;20188;-46
2022/08/04 10:30:30;;;;;;;4.15;1.40;;;32.40;99.80;;;;;;5075361;28;20569;-48
2022/08/04 10:33:08;;;;;;;8.15;1.60;;;32.50;99.60;;;;;;5075636;28;20172;-48
2022/08/04 10:35:58;;;;;;;4.57;1.58;;;32.60;99.10;;;;;;5075179;28;20171;-48
2022/08/04 10:38:27;;;;;;;1.90;1.40;;;32.50;98.50;;;;;;5074899;28;20721;-48
2022/08/04 10:41:17;;;;;;;3.60;1.38;;;32.60;99.30;;;;;;5075110;28;20615;-48
2022/08/04 10:44:01;;;;;;;3.08;1.45;;;32.50;99.40;;;;;;5075167;28;20172;-48
2022/08/04 10:46:46;;;;;;;2.58;1.42;;;32.50;99.00;;;;;;5074850;28;20174;-48
2022/08/04 10:49:25;;;;;;;3.25;1.35;;;32.60;98.60;;;;;;5073444;28;20663;-47
2022/08/04 10:51:54;;;;;;;4.65;1.50;;;32.50;99.20;;;;;;5074875;28;20226;-47
2022/08/04 10:54:50;;;;;;;8.38;1.48;;;32.40;98.70;;;;;;5074643;28;20217;-48
2022/08/04 10:57:37;;;;;;;6.72;1.75;;;32.30;98.90;;;;;;5074627;28;20248;-47
2022/08/04 11:00:08;;;;;;;3.25;1.52;;;32.10;99.30;;;;;;5075092;28;20596;-47
2022/08/04 11:02:36;;;;;;;5.40;1.40;;;32.00;99.20;;;;;;5073259;28;20582;-47
2022/08/04 11:05:20;;;;;;;1.92;1.50;;;31.90;99.50;;;;;;5074364;28;20175;-47
2022/08/04 11:07:50;;;;;;;10.45;1.67;;;31.90;99.20;;;;;;5074305;28;20562;-46
2022/08/04 11:10:20;;;;;;;5.30;1.83;;;31.90;99.30;;;;;;5074508;28;20201;-46
2022/08/04 11:12:51;;;;;;;5.25;1.52;;;31.80;99.10;;;;;;5074616;28;20293;-47
2022/08/04 11:15:23;;;;;;;3.08;1.67;;;31.70;99.30;;;;;;5074290;28;20247;-47
2022/08/04 11:17:59;;;;;;;3.60;1.83;;;31.60;99.20;;;;;;5073017;28;20195;-46
2022/08/04 11:20:34;;;;;;;7.45;1.52;;;31.40;99.90;;;;;;5074465;28;20280;-48
2022/08/04 11:23:05;;;;;;;7.97;2.13;;;31.30;99.90;;;;;;5074428;28;20294;-46
2022/08/04 11:26:03;;;;;;;4.15;1.60;;;31.10;99.90;;;;;;5074382;28;20213;-47
2022/08/04 11:28:50;;;;;;;3.95;1.60;;;31.00;99.90;;;;;;5073912;28;20200;-48
2022/08/04 11:31:22;;;;;;;7.55;2.10;;;30.90;99.90;;;;;;5073949;28;20199;-47
2022/08/04 11:34:18;;;;;;;6.43;1.70;;;30.90;99.90;;;;;;5073926;28;20199;-47
2022/08/04 11:37:14;;;;;;;4.00;1.63;;;30.90;99.90;;;;;;5073810;28;20639;-48
2022/08/04 11:39:47;;;;;;;3.28;1.80;;;30.80;99.90;;;;;;5073350;28;20226;-47
2022/08/04 11:42:27;;;;;;;3.03;1.63;;;30.60;99.90;;;;;;5074574;28;20210;-48
2022/08/04 11:45:14;;;;;;;3.28;1.70;;;30.60;99.90;;;;;;5073713;28;20175;-48
2022/08/04 11:47:52;;;;;;;8.63;1.90;;;30.60;99.90;;;;;;5073615;28;20203;-46
2022/08/04 11:50:29;;;;;;;3.92;1.70;;;30.60;99.90;;;;;;5073797;28;20655;-47
2022/08/04 11:52:56;;;;;;;5.15;1.98;;;30.70;99.90;;;;;;5073505;28;20164;-47
2022/08/04 11:55:25;;;;;;;6.07;2.17;;;30.80;99.90;;;;;;5073851;28;20176;-47
2022/08/04 11:57:52;;;;;;;5.45;2.05;;;31.00;99.90;;;;;;5073799;28;20176;-48
2022/08/04 12:00:18;;;;;;;5.13;1.85;;;31.00;99.90;;;;;;5073515;28;20317;-48
2022/08/04 12:03:08;;;;;;;3.92;2.10;;;31.00;99.90;;;;;;5073474;28;20667;-47
2022/08/04 12:05:54;;;;;;;7.60;2.17;;;31.10;99.90;;;;;;5073626;28;20594;-47
2022/08/04 12:08:35;;;;;;;3.85;1.90;;;31.20;99.90;;;;;;5073149;28;20218;-47
2022/08/04 12:11:19;;;;;;;6.75;1.92;;;31.00;99.90;;;;;;5073640;28;20199;-47
2022/08/04 12:13:53;;;;;;;5.22;2.00;;;30.90;99.90;;;;;;5073612;28;20168;-48
2022/08/04 12:16:53;;;;;;;3.58;1.60;;;30.90;99.90;;;;;;5074257;28;20253;-47
2022/08/04 12:19:43;;;;;;;3.88;1.60;;;30.90;99.90;;;;;;5073386;28;20175;-47
2022/08/04 12:22:21;;;;;;;6.20;1.70;;;30.80;99.90;;;;;;5073418;28;20702;-48
2022/08/04 12:25:06;;;;;;;5.85;1.65;;;30.80;99.90;;;;;;5073433;28;20172;-48
2022/08/04 12:27:45;;;;;;;8.65;2.13;;;30.80;99.90;;;;;;5073617;28;20207;-47
2022/08/04 12:30:11;;;;;;;5.63;1.65;;;30.80;99.90;;;;;;5073636;28;20727;-47
2022/08/04 12:33:11;;;;;;;4.40;1.77;;;30.70;99.90;;;;;;5073634;28;20180;-47
2022/08/04 12:35:44;;;;;;;3.50;2.25;;;30.60;99.90;;;;;;5066121;28;20215;-47
2022/08/04 12:38:13;;;;;;;8.25;1.65;;;30.80;99.90;;;;;;5073151;28;20631;-48
2022/08/04 12:40:50;;;;;;;4.82;1.80;;;30.80;99.90;;;;;;5073646;28;20623;-47
2022/08/04 12:43:37;;;;;;;4.85;1.70;;;31.00;99.90;;;;;;5073217;28;20667;-47
2022/08/04 12:46:09;;;;;;;4.03;1.90;;;31.10;99.90;;;;;;5073469;28;20182;-47
2022/08/04 12:48:36;;;;;;;3.03;1.45;;;31.20;99.90;;;;;;5073344;28;20195;-48
2022/08/04 12:51:03;;;;;;;5.20;1.83;;;31.20;99.90;;;;;;5072990;28;20560;-48
2022/08/04 12:53:33;;;;;;;3.83;1.80;;;31.10;99.50;;;;;;5072937;28;20179;-47
2022/08/04 12:56:00;;;;;;;4.45;2.03;;;31.00;99.90;;;;;;5072998;28;20659;-47
2022/08/04 12:58:28;;;;;;;3.45;1.40;;;31.00;99.90;;;;;;5071612;28;20187;-48
2022/08/04 13:01:02;;;;;;;3.65;1.63;;;31.00;99.90;;;;;;5073146;28;20221;-47
2022/08/04 13:03:35;;;;;;;4.63;2.00;;;31.00;99.90;;;;;;5073258;28;20250;-47
2022/08/04 13:06:01;;;;;;;5.68;1.75;;;31.00;99.90;;;;;;5075196;28;20160;-46
2022/08/04 13:08:27;;;;;;;4.45;1.70;;;31.00;99.90;;;;;;5076658;28;20199;-47
2022/08/04 13:10:56;;;;;;;3.92;1.88;;;31.10;99.90;;;;;;5076805;28;20195;-47
2022/08/04 13:13:25;;;;;;;4.18;1.98;;;31.10;99.90;;;;;;5076565;28;20183;-46
2022/08/04 13:15:57;;;;;;;4.55;2.15;;;31.10;99.90;;;;;;5076804;28;20275;-46
2022/08/04 13:18:25;;;;;;;3.08;1.88;;;31.10;99.90;;;;;;5077063;28;20176;-47
2022/08/04 13:20:51;;;;;;;6.00;2.22;;;30.90;99.90;;;;;;5076676;28;20212;-47
2022/08/04 13:23:19;;;;;;;6.60;1.52;;;30.80;99.90;;;;;;5076434;28;20172;-47
2022/08/04 13:25:48;;;;;;;3.33;2.00;;;30.60;99.90;;;;;;5076316;28;20663;-48
2022/08/04 13:28:22;;;;;;;5.70;1.70;;;30.50;99.90;;;;;;5076199;28;20207;-46
2022/08/04 13:30:54;;;;;;;3.00;1.75;;;30.30;99.90;;;;;;5076447;28;20670;-47
2022/08/04 13:33:22;;;;;;;6.57;1.98;;;30.20;99.90;;;;;;5076487;28;20239;-46
2022/08/04 13:35:48;;;;;;;7.57;2.15;;;30.00;99.90;;;;;;5076112;28;20630;-47
2022/08/04 13:38:16;;;;;;;4.82;1.98;;;30.00;99.90;;;;;;5076126;28;20203;-47
2022/08/04 13:40:43;;;;;;;4.88;1.73;;;29.90;99.90;;;;;;5076040;28;20199;-47